createdAt,value
2023-05-05T00:01:20.224Z,21.14
2023-05-05T00:06:23.057Z,21.09
2023-05-05T00:11:27.453Z,21.04
2023-05-05T00:16:30.223Z,20.99
2023-05-05T00:21:33.077Z,20.92
2023-05-05T00:26:37.190Z,20.88
2023-05-05T00:31:40.184Z,20.81
2023-05-05T00:36:42.983Z,20.70
2023-05-05T00:41:47.233Z,20.62
2023-05-05T00:46:50.129Z,20.56
2023-05-05T00:51:53.032Z,20.51
2023-05-05T00:56:57.219Z,20.43
2023-05-05T01:02:00.150Z,20.39
2023-05-05T01:07:08.699Z,20.36
2023-05-05T01:12:17.121Z,20.27
2023-05-05T01:17:21.192Z,20.18
2023-05-05T01:22:25.831Z,20.16
2023-05-05T01:27:38.306Z,20.12
2023-05-05T01:32:44.606Z,20.07
2023-05-05T01:37:48.752Z,20.01
2023-05-05T01:42:51.536Z,19.97
2023-05-05T01:47:55.845Z,19.94
2023-05-05T01:52:59.037Z,19.90
2023-05-05T01:58:01.797Z,19.89
2023-05-05T02:03:06.488Z,19.86
2023-05-05T02:08:09.820Z,19.86
2023-05-05T02:13:13.467Z,19.83
2023-05-05T02:18:17.764Z,19.81
2023-05-05T02:23:20.631Z,19.80
2023-05-05T02:28:24.250Z,19.79
2023-05-05T02:33:28.634Z,19.75
2023-05-05T02:38:31.867Z,19.74
2023-05-05T02:43:37.780Z,19.72
2023-05-05T02:48:42.328Z,19.72
2023-05-05T02:53:45.127Z,19.62
2023-05-05T02:58:50.079Z,19.67
2023-05-05T03:03:58.167Z,19.67
2023-05-05T03:09:07.276Z,19.64
2023-05-05T03:14:12.880Z,19.62
2023-05-05T03:19:18.985Z,19.61
2023-05-05T03:24:24.213Z,19.62
2023-05-05T03:29:37.356Z,19.58
2023-05-05T03:34:45.281Z,19.56
2023-05-05T03:39:48.775Z,19.53
2023-05-05T03:44:53.430Z,19.51
2023-05-05T03:50:00.635Z,19.49
2023-05-05T03:55:03.624Z,19.48
2023-05-05T04:00:11.758Z,19.46
2023-05-05T04:05:19.767Z,19.46
2023-05-05T04:10:22.939Z,19.44
2023-05-05T04:15:25.792Z,19.43
2023-05-05T04:20:30.256Z,19.41
2023-05-05T04:25:33.273Z,19.41
2023-05-05T04:30:36.503Z,19.40
2023-05-05T04:35:40.711Z,19.40
2023-05-05T04:40:43.718Z,19.40
2023-05-05T04:45:53.647Z,19.41
2023-05-05T04:50:59.714Z,19.40
2023-05-05T04:56:02.789Z,19.43
2023-05-05T05:01:06.079Z,19.43
2023-05-05T05:06:10.282Z,19.45
2023-05-05T05:11:13.190Z,19.45
2023-05-05T05:16:16.159Z,19.46
2023-05-05T05:21:20.995Z,19.48
2023-05-05T05:26:24.017Z,19.50
2023-05-05T05:31:27.090Z,19.51
2023-05-05T05:36:32.569Z,19.54
2023-05-05T05:41:35.613Z,19.54
2023-05-05T05:46:38.980Z,19.56
2023-05-05T05:51:43.707Z,19.60
2023-05-05T05:56:46.738Z,19.61
2023-05-05T06:01:49.676Z,19.63
2023-05-05T06:06:53.918Z,19.66
2023-05-05T06:11:56.994Z,19.68
2023-05-05T06:16:59.884Z,19.70
2023-05-05T06:22:06.343Z,19.76
2023-05-05T06:27:10.234Z,19.78
2023-05-05T06:32:14.181Z,19.80
2023-05-05T06:37:18.470Z,19.85
2023-05-05T06:42:21.548Z,19.89
2023-05-05T06:47:24.401Z,19.92
2023-05-05T06:52:28.747Z,20.04
2023-05-05T06:57:31.669Z,19.97
2023-05-05T07:02:34.638Z,19.92
2023-05-05T07:07:38.944Z,19.96
2023-05-05T07:12:41.995Z,19.93
2023-05-05T07:17:45.136Z,19.84
2023-05-05T07:22:49.494Z,19.85
2023-05-05T07:27:52.393Z,19.91
2023-05-05T07:32:56.710Z,19.96
2023-05-05T07:38:01.086Z,20.00
2023-05-05T07:43:04.776Z,19.95
2023-05-05T07:48:07.681Z,19.97
2023-05-05T07:53:14.983Z,19.95
2023-05-05T07:58:18.137Z,19.91
2023-05-05T08:03:24.520Z,19.89
2023-05-05T08:08:29.165Z,19.89
2023-05-05T08:13:32.220Z,20.00
2023-05-05T08:18:37.503Z,20.05
2023-05-05T08:23:42.031Z,20.14
2023-05-05T08:28:44.924Z,20.22
2023-05-05T08:33:47.789Z,20.26
2023-05-05T08:38:52.005Z,20.29
2023-05-05T08:43:54.838Z,20.28
2023-05-05T08:48:57.655Z,20.38
2023-05-05T08:54:03.436Z,20.38
2023-05-05T08:59:06.263Z,20.41
2023-05-05T09:04:09.357Z,20.43
2023-05-05T09:09:13.495Z,20.44
2023-05-05T09:14:16.446Z,20.45
2023-05-05T09:19:19.331Z,20.51
2023-05-05T09:24:23.541Z,20.57
2023-05-05T09:29:26.425Z,20.64
2023-05-05T09:34:29.209Z,20.62
2023-05-05T09:39:33.436Z,20.70
2023-05-05T09:44:36.624Z,20.77
2023-05-05T09:49:39.433Z,20.79
2023-05-05T09:54:43.669Z,20.81
2023-05-05T09:59:56.578Z,20.83
2023-05-05T10:05:06.289Z,20.85
2023-05-05T10:10:11.912Z,20.90
2023-05-05T10:15:15.473Z,20.93
2023-05-05T10:20:18.275Z,20.99
2023-05-05T10:25:26.668Z,20.97
2023-05-05T10:30:31.268Z,21.03
2023-05-05T10:35:34.609Z,20.99
2023-05-05T10:40:38.846Z,21.03
2023-05-05T10:45:41.720Z,21.07
2023-05-05T10:50:49.064Z,21.08
2023-05-05T10:55:56.256Z,21.12
2023-05-05T11:00:59.279Z,21.22
2023-05-05T11:06:15.776Z,21.31
2023-05-05T11:11:20.225Z,21.29
2023-05-05T11:16:44.253Z,21.35
2023-05-05T11:22:01.004Z,21.41
2023-05-05T11:27:05.427Z,21.43
2023-05-05T11:32:15.699Z,21.42
2023-05-05T11:37:18.671Z,21.47
2023-05-05T11:42:26.773Z,21.50
2023-05-05T11:47:32.777Z,21.55
2023-05-05T11:52:35.691Z,21.66
2023-05-05T11:57:40.097Z,21.73
2023-05-05T12:02:43.116Z,21.72
2023-05-05T12:07:46.065Z,21.47
2023-05-05T12:12:50.303Z,21.40
2023-05-05T12:17:53.181Z,21.33
2023-05-05T12:23:00.989Z,21.32
2023-05-05T12:28:06.097Z,21.30
2023-05-05T12:33:09.304Z,21.29
2023-05-05T12:38:12.312Z,21.28
2023-05-05T12:43:30.044Z,21.26
2023-05-05T12:48:32.962Z,21.25
2023-05-05T12:53:35.835Z,21.21
2023-05-05T12:58:49.734Z,21.21
2023-05-05T13:04:06.256Z,21.21
2023-05-05T13:09:10.192Z,21.26
2023-05-05T13:14:14.589Z,21.29
2023-05-05T13:19:17.447Z,21.35
2023-05-05T13:24:28.687Z,21.43
2023-05-05T13:29:40.106Z,21.42
2023-05-05T13:34:44.157Z,21.48
2023-05-05T13:39:47.208Z,21.49
2023-05-05T13:44:51.633Z,21.45
2023-05-05T13:49:54.649Z,21.35
2023-05-05T13:54:57.910Z,21.34
2023-05-05T14:00:04.772Z,21.32
2023-05-05T14:05:11.133Z,21.31
2023-05-05T14:10:14.220Z,21.32
2023-05-05T14:15:18.932Z,21.30
2023-05-05T14:20:22.041Z,21.30
2023-05-05T14:25:25.339Z,21.31
2023-05-05T14:30:29.687Z,21.30
2023-05-05T14:35:32.638Z,21.30
2023-05-05T14:40:35.480Z,21.29
2023-05-05T14:45:39.892Z,21.28
2023-05-05T14:50:42.851Z,21.27
2023-05-05T14:55:45.861Z,21.29
2023-05-05T15:00:50.108Z,21.33
2023-05-05T15:05:53.143Z,21.42
2023-05-05T15:10:55.910Z,21.45
2023-05-05T15:16:00.071Z,21.46
2023-05-05T15:21:03.064Z,21.53
2023-05-05T15:26:05.889Z,21.58
2023-05-05T15:31:10.283Z,21.72
2023-05-05T15:36:13.707Z,21.79
2023-05-05T15:41:16.583Z,21.82
2023-05-05T15:46:20.814Z,21.79
2023-05-05T15:51:23.688Z,21.83
2023-05-05T15:56:27.339Z,21.85
2023-05-05T16:01:33.379Z,21.94
2023-05-05T16:06:36.483Z,22.01
2023-05-05T16:11:39.301Z,22.03
2023-05-05T16:16:43.884Z,22.04
2023-05-05T16:21:46.682Z,22.04
2023-05-05T16:26:49.714Z,22.05
2023-05-05T16:31:53.977Z,22.04
2023-05-05T16:36:56.747Z,22.09
2023-05-05T16:41:59.584Z,22.13
2023-05-05T16:47:04.138Z,22.13
2023-05-05T16:52:07.054Z,22.17
2023-05-05T16:57:09.962Z,22.18
2023-05-05T17:02:14.288Z,22.19
2023-05-05T17:07:17.082Z,22.16
2023-05-05T17:12:19.873Z,22.23
2023-05-05T17:17:24.269Z,22.24
2023-05-05T17:22:27.069Z,22.25
2023-05-05T17:27:29.980Z,22.27
2023-05-05T17:32:34.108Z,22.25
2023-05-05T17:37:37.174Z,22.26
2023-05-05T17:42:40.530Z,22.24
2023-05-05T17:47:44.811Z,22.27
2023-05-05T17:52:47.683Z,22.28
2023-05-05T17:57:50.714Z,22.27
2023-05-05T18:02:55.763Z,22.27
2023-05-05T18:07:58.571Z,22.30
2023-05-05T18:13:01.368Z,22.31
2023-05-05T18:18:06.071Z,22.32
2023-05-05T18:23:08.939Z,22.33
2023-05-05T18:28:12.290Z,22.37
2023-05-05T18:33:16.546Z,22.37
2023-05-05T18:38:19.718Z,22.38
2023-05-05T18:43:22.521Z,22.36
2023-05-05T18:48:27.845Z,22.39
2023-05-05T18:53:30.944Z,22.39
2023-05-05T18:58:33.899Z,22.39
2023-05-05T19:03:38.523Z,22.40
2023-05-05T19:08:41.422Z,22.41
2023-05-05T19:13:44.238Z,22.41
2023-05-05T19:18:48.413Z,22.43
2023-05-05T19:23:51.196Z,22.45
2023-05-05T19:28:54.186Z,22.45
2023-05-05T19:34:00.802Z,22.47
2023-05-05T19:39:04.181Z,22.44
2023-05-05T19:44:06.953Z,22.47
2023-05-05T19:49:11.178Z,22.46
2023-05-05T19:54:14.246Z,22.48
2023-05-05T19:59:17.577Z,22.47
2023-05-05T20:04:21.711Z,22.47
2023-05-05T20:09:24.490Z,22.47
2023-05-05T20:14:27.266Z,22.48
2023-05-05T20:19:31.540Z,22.47
2023-05-05T20:24:34.879Z,22.47
2023-05-05T20:29:37.839Z,22.49
2023-05-05T20:34:42.151Z,22.50
2023-05-05T20:39:44.907Z,22.49
2023-05-05T20:44:47.816Z,22.50
2023-05-05T20:49:52.133Z,22.48
2023-05-05T20:54:54.989Z,22.50
2023-05-05T20:59:57.974Z,22.51
2023-05-05T21:05:03.210Z,22.51
2023-05-05T21:10:07.272Z,22.50
2023-05-05T21:15:11.571Z,22.51
2023-05-05T21:20:16.361Z,22.52
2023-05-05T21:25:19.806Z,22.54
2023-05-05T21:30:23.878Z,22.53
2023-05-05T21:35:28.071Z,22.49
2023-05-05T21:40:30.951Z,22.54
2023-05-05T21:45:33.948Z,22.57
2023-05-05T21:50:38.114Z,22.57
2023-05-05T21:55:40.893Z,22.57
2023-05-05T22:00:44.912Z,22.59
2023-05-05T22:05:49.191Z,22.58
2023-05-05T22:10:52.113Z,22.60
2023-05-05T22:15:54.950Z,22.58
2023-05-05T22:20:59.068Z,22.58
2023-05-05T22:26:01.910Z,22.58
2023-05-05T22:31:04.848Z,22.59
2023-05-05T22:36:10.056Z,22.59
2023-05-05T22:41:13.406Z,22.60
2023-05-05T22:46:16.223Z,22.60
2023-05-05T22:51:20.334Z,22.60
2023-05-05T22:56:23.088Z,22.50
2023-05-05T23:01:25.989Z,22.57
2023-05-05T23:06:30.257Z,22.52
2023-05-05T23:11:33.161Z,22.47
2023-05-05T23:16:36.008Z,22.42
2023-05-05T23:21:52.199Z,22.37
2023-05-05T23:26:56.582Z,22.29
2023-05-05T23:31:59.488Z,22.20
2023-05-05T23:37:05.917Z,22.16
2023-05-05T23:42:09.024Z,22.10
2023-05-05T23:47:11.845Z,22.04
2023-05-05T23:52:16.069Z,22.01
2023-05-05T23:57:18.883Z,21.99
